createdAt,value
2018-12-25T07:07:50.715Z,3.03
2018-12-25T07:10:21.138Z,2.62
2018-12-25T07:12:51.257Z,2.83
2018-12-25T07:15:33.012Z,2.50
2018-12-25T07:17:56.832Z,2.57
2018-12-25T07:20:28.988Z,2.60
2018-12-25T07:22:59.390Z,2.80
2018-12-25T07:25:29.350Z,2.93
2018-12-25T07:30:55.993Z,2.43
2018-12-25T07:33:27.095Z,2.10
2018-12-25T07:35:57.490Z,2.50
2018-12-25T07:38:27.518Z,2.67
2018-12-25T07:40:57.783Z,2.30
2018-12-25T07:43:28.569Z,2.30
2018-12-25T07:45:58.856Z,2.40
2018-12-25T07:48:30.190Z,2.63
2018-12-25T07:51:00.509Z,1.90
2018-12-25T07:53:31.057Z,2.63
2018-12-25T07:56:00.840Z,2.33
2018-12-25T07:58:30.904Z,2.83
2018-12-25T08:01:00.667Z,2.90
2018-12-25T08:03:30.589Z,3.13
2018-12-25T08:06:00.561Z,2.93
2018-12-25T08:08:30.439Z,3.20
2018-12-25T08:11:00.129Z,3.20
2018-12-25T08:13:30.729Z,3.37
2018-12-25T08:16:00.465Z,3.63
2018-12-25T08:18:30.929Z,3.43
2018-12-25T08:21:01.087Z,3.00
2018-12-25T08:23:30.915Z,2.47
2018-12-25T08:26:00.951Z,2.67
2018-12-25T08:28:30.798Z,3.13
2018-12-25T08:31:00.931Z,3.10
2018-12-25T08:33:30.931Z,3.47
2018-12-25T08:36:00.635Z,3.47
2018-12-25T08:38:33.038Z,3.50
2018-12-25T08:41:03.029Z,3.73
2018-12-25T08:43:33.088Z,4.25
2018-12-25T08:46:03.043Z,3.33
2018-12-25T08:48:33.194Z,3.93
2018-12-25T08:51:03.254Z,3.63
2018-12-25T08:53:33.035Z,3.67
2018-12-25T08:56:02.755Z,3.70
2018-12-25T08:58:32.610Z,4.58
2018-12-25T09:01:02.356Z,4.07
2018-12-25T09:03:33.079Z,4.17
2018-12-25T09:06:03.065Z,4.53
2018-12-25T09:08:52.914Z,3.97
2018-12-25T09:11:29.922Z,4.50
2018-12-25T09:13:59.899Z,3.87
2018-12-25T09:16:31.794Z,4.40
2018-12-25T09:19:01.910Z,4.42
2018-12-25T09:21:31.786Z,4.67
2018-12-25T09:24:02.001Z,4.85
2018-12-25T09:26:31.872Z,4.80
2018-12-25T09:29:03.231Z,4.50
2018-12-25T09:31:34.187Z,4.93
2018-12-25T09:34:07.781Z,4.40
2018-12-25T09:36:37.781Z,4.63
2018-12-25T09:39:08.254Z,4.20
2018-12-25T09:41:38.154Z,4.23
2018-12-25T09:44:08.057Z,4.50
2018-12-25T09:46:38.744Z,4.30
2018-12-25T09:49:09.463Z,4.07
2018-12-25T09:51:40.158Z,3.77
2018-12-25T09:54:10.906Z,3.87
2018-12-25T09:56:40.971Z,4.00
2018-12-25T09:59:11.721Z,4.17
2018-12-25T10:01:41.994Z,3.80
2018-12-25T10:04:12.088Z,3.80
2018-12-25T10:06:42.812Z,3.27
2018-12-25T10:09:13.591Z,3.33
2018-12-25T10:11:44.546Z,3.00
2018-12-25T10:14:14.811Z,3.17
2018-12-25T10:16:44.836Z,3.00
2018-12-25T10:19:14.783Z,2.83
2018-12-25T10:21:45.285Z,3.13
2018-12-25T10:24:15.884Z,3.10
2018-12-25T10:26:45.928Z,3.93
2018-12-25T10:29:16.347Z,2.83
2018-12-25T10:31:46.637Z,3.07
2018-12-25T10:34:16.769Z,2.60
2018-12-25T10:36:46.718Z,2.80
2018-12-25T10:39:17.134Z,2.80
2018-12-25T10:41:47.268Z,2.40
2018-12-25T10:44:17.051Z,2.90
2018-12-25T10:46:47.366Z,2.83
2018-12-25T10:49:17.623Z,2.30
2018-12-25T10:51:47.976Z,2.57
2018-12-25T10:54:20.677Z,2.13
2018-12-25T10:56:50.491Z,2.43
2018-12-25T10:59:20.664Z,2.60
2018-12-25T11:01:50.547Z,3.00
2018-12-25T11:04:20.762Z,2.13
2018-12-25T11:06:51.339Z,2.80
2018-12-25T11:09:21.382Z,2.40
2018-12-25T11:11:51.311Z,2.13
2018-12-25T11:14:21.783Z,2.20
2018-12-25T11:16:59.529Z,2.67
2018-12-25T11:19:30.848Z,2.40
2018-12-25T11:22:01.044Z,2.35
2018-12-25T11:24:31.921Z,2.37
2018-12-25T11:27:02.577Z,2.10
2018-12-25T11:29:33.084Z,1.67
2018-12-25T11:32:03.350Z,1.70
2018-12-25T11:34:33.523Z,1.90
2018-12-25T11:37:03.250Z,2.00
2018-12-25T11:39:33.810Z,2.07
2018-12-25T11:42:03.502Z,1.77
2018-12-25T11:44:33.596Z,2.00
2018-12-25T11:47:03.943Z,1.70
2018-12-25T11:49:34.328Z,1.60
2018-12-25T11:52:04.445Z,1.80
2018-12-25T11:54:34.522Z,1.43
2018-12-25T11:57:04.695Z,1.57
2018-12-25T11:59:38.366Z,1.27
2018-12-25T12:02:16.769Z,1.50
2018-12-25T12:04:39.758Z,1.77
2018-12-25T12:07:09.463Z,1.20
2018-12-25T12:09:45.142Z,1.43
2018-12-25T12:12:19.650Z,1.20
2018-12-25T12:14:49.631Z,1.30
2018-12-25T12:17:19.386Z,1.20
2018-12-25T12:19:49.155Z,1.30
2018-12-25T12:22:18.882Z,1.10
2018-12-25T12:24:48.619Z,2.07
2018-12-25T12:27:18.803Z,1.40
2018-12-25T12:29:48.864Z,1.40
2018-12-25T12:32:19.181Z,1.40
2018-12-25T12:34:49.137Z,1.60
2018-12-25T12:37:18.968Z,1.90
2018-12-25T12:39:48.991Z,1.60
2018-12-25T12:42:19.014Z,1.80
2018-12-25T12:44:48.831Z,1.60
2018-12-25T12:47:18.567Z,1.90
2018-12-25T12:49:48.916Z,2.00
2018-12-25T12:52:18.998Z,2.20
2018-12-25T12:55:04.928Z,2.10
2018-12-25T12:57:42.862Z,2.20
2018-12-25T13:00:24.505Z,2.07
2018-12-25T13:03:02.991Z,2.20
2018-12-25T13:05:33.395Z,2.50
2018-12-25T13:08:03.215Z,2.50
2018-12-25T13:10:33.036Z,2.25
2018-12-25T13:13:02.763Z,2.30
2018-12-25T13:15:32.857Z,2.40
2018-12-25T13:18:02.933Z,2.70
2018-12-25T13:20:32.931Z,2.93
2018-12-25T13:23:03.033Z,2.70
2018-12-25T13:25:33.364Z,3.00
2018-12-25T13:28:03.266Z,2.47
2018-12-25T13:30:33.366Z,2.40
2018-12-25T13:33:03.088Z,2.50
2018-12-25T13:35:32.814Z,2.67
2018-12-25T13:38:02.901Z,2.73
2018-12-25T13:40:33.335Z,2.73
2018-12-25T13:43:03.055Z,2.23
2018-12-25T13:45:33.391Z,2.47
2018-12-25T13:48:06.111Z,2.33
2018-12-25T13:50:36.055Z,2.57
2018-12-25T13:53:06.104Z,3.70
2018-12-25T13:55:36.565Z,3.60
2018-12-25T13:58:06.677Z,2.20
2018-12-25T14:00:37.500Z,2.13
2018-12-25T14:03:07.510Z,2.50
2018-12-25T14:05:38.233Z,2.00
2018-12-25T14:08:08.147Z,2.30
2018-12-25T14:10:37.897Z,2.20
2018-12-25T14:13:08.360Z,2.07
2018-12-25T14:15:38.746Z,2.00
2018-12-25T14:18:10.113Z,1.90
2018-12-25T14:20:40.215Z,2.57
2018-12-25T14:23:11.276Z,1.90
2018-12-25T14:25:42.025Z,2.00
2018-12-25T14:28:12.858Z,2.10
2018-12-25T14:30:42.912Z,1.60
2018-12-25T14:33:12.948Z,1.53
2018-12-25T14:35:42.969Z,1.60
2018-12-25T14:38:12.735Z,1.57
2018-12-25T14:40:42.455Z,1.40
2018-12-25T14:43:12.537Z,1.30
2018-12-25T14:45:42.394Z,1.30
2018-12-25T14:48:12.467Z,1.40
2018-12-25T14:50:42.523Z,1.10
2018-12-25T14:53:19.704Z,1.33
2018-12-25T14:55:44.832Z,1.07
2018-12-25T14:58:15.162Z,1.30
2018-12-25T15:00:45.292Z,1.40
2018-12-25T15:03:15.295Z,1.70
2018-12-25T15:05:45.659Z,1.15
2018-12-25T15:08:15.697Z,1.40
2018-12-25T15:10:45.461Z,1.33
2018-12-25T15:13:15.204Z,1.30
2018-12-25T15:15:45.269Z,1.53
2018-12-25T15:18:15.385Z,1.20
2018-12-25T15:20:45.134Z,1.40
2018-12-25T15:23:14.886Z,1.37
2018-12-25T15:25:45.198Z,1.20
2018-12-25T15:28:17.437Z,1.30
2018-12-25T15:30:47.772Z,1.40
2018-12-25T15:33:17.653Z,1.30
2018-12-25T15:35:48.075Z,1.27
2018-12-25T15:38:18.886Z,1.40
2018-12-25T15:40:49.056Z,1.60
2018-12-25T15:43:19.510Z,1.20
2018-12-25T15:45:49.277Z,1.00
2018-12-25T15:48:19.313Z,1.10
2018-12-25T15:53:42.949Z,1.50
2018-12-25T15:56:25.661Z,1.30
2018-12-25T15:58:55.607Z,1.00
2018-12-25T16:01:25.551Z,1.27
2018-12-25T16:03:55.711Z,1.03
2018-12-25T16:06:25.779Z,0.80
2018-12-25T16:08:56.171Z,1.00
2018-12-25T16:11:26.771Z,1.13
2018-12-25T16:13:56.744Z,0.83
2018-12-25T16:16:26.774Z,0.90
2018-12-25T16:18:57.435Z,1.13
2018-12-25T16:21:28.101Z,1.27
2018-12-25T16:23:58.394Z,1.33
2018-12-25T16:26:29.342Z,1.10
2018-12-25T16:29:00.881Z,1.20
2018-12-25T16:31:31.246Z,1.27
2018-12-25T16:34:01.026Z,1.40
2018-12-25T16:36:30.965Z,2.60
2018-12-25T16:39:01.132Z,1.27
2018-12-25T16:41:32.882Z,1.20
2018-12-25T16:44:03.352Z,1.30
2018-12-25T16:46:33.722Z,1.30
2018-12-25T16:49:03.500Z,1.43
2018-12-25T16:51:33.566Z,0.98
2018-12-25T16:54:03.390Z,1.47
2018-12-25T16:56:33.486Z,1.40
2018-12-25T16:59:04.206Z,1.00
2018-12-25T17:01:33.962Z,1.10
2018-12-25T17:04:04.276Z,1.00
2018-12-25T17:06:34.427Z,1.35
2018-12-25T17:09:05.411Z,1.20
2018-12-25T17:11:35.272Z,1.37
2018-12-25T17:14:05.950Z,1.40
2018-12-25T17:16:35.780Z,1.20
2018-12-25T17:19:05.566Z,1.40
2018-12-25T17:21:35.321Z,1.10
2018-12-25T17:24:05.463Z,1.30
2018-12-25T17:26:35.326Z,1.47
2018-12-25T17:29:05.655Z,1.87
2018-12-25T17:31:35.536Z,1.50
2018-12-25T17:34:05.283Z,1.67
2018-12-25T17:36:35.242Z,1.30
2018-12-25T17:39:07.492Z,1.47
2018-12-25T17:41:37.325Z,1.70
2018-12-25T17:44:07.142Z,1.90
2018-12-25T17:46:38.933Z,1.90
2018-12-25T17:49:09.026Z,1.50
2018-12-25T17:51:38.901Z,1.90
2018-12-25T17:54:10.843Z,1.67
2018-12-25T17:56:40.572Z,1.90
2018-12-25T17:59:11.020Z,2.20
2018-12-25T18:01:41.011Z,1.83
2018-12-25T18:04:11.307Z,1.80
2018-12-25T18:06:41.942Z,1.70
2018-12-25T18:09:13.392Z,1.80
2018-12-25T18:11:43.804Z,1.90
2018-12-25T18:14:13.916Z,1.70
2018-12-25T18:16:44.266Z,1.80
2018-12-25T18:19:14.575Z,1.93
2018-12-25T18:21:44.634Z,2.20
2018-12-25T18:24:19.440Z,1.77
2018-12-25T18:26:49.357Z,2.02
2018-12-25T18:29:19.780Z,2.20
2018-12-25T18:31:50.417Z,1.95
2018-12-25T18:34:20.526Z,1.98
2018-12-25T18:36:51.258Z,2.27
2018-12-25T18:39:27.828Z,2.33
2018-12-25T18:41:58.288Z,2.70
2018-12-25T18:44:28.900Z,3.53
2018-12-25T18:46:59.004Z,4.30
2018-12-25T18:49:30.035Z,4.83
2018-12-25T18:52:00.477Z,4.37
2018-12-25T18:54:30.494Z,3.70
2018-12-25T18:57:00.858Z,3.50
2018-12-25T18:59:31.097Z,3.30
2018-12-25T19:02:01.191Z,3.40
2018-12-25T19:04:31.779Z,3.43
2018-12-25T19:07:02.304Z,3.42
2018-12-25T19:09:32.407Z,3.60
2018-12-25T19:12:02.324Z,3.83
2018-12-25T19:14:33.965Z,3.60
2018-12-25T19:17:04.273Z,3.30
2018-12-25T19:19:35.568Z,3.63
2018-12-25T19:22:06.617Z,3.47
2018-12-25T19:24:37.159Z,3.93
2018-12-25T19:27:07.370Z,4.33
2018-12-25T19:29:37.596Z,4.50
2018-12-25T19:32:08.154Z,4.00
2018-12-25T19:34:38.722Z,3.63
2018-12-25T19:37:09.891Z,4.60
2018-12-25T19:39:40.278Z,4.40
2018-12-25T19:42:10.680Z,4.37
2018-12-25T19:44:40.751Z,4.70
2018-12-25T19:47:11.344Z,4.80
2018-12-25T19:49:41.931Z,4.90
2018-12-25T19:52:12.157Z,4.70
2018-12-25T19:54:44.629Z,4.63
2018-12-25T19:57:15.411Z,5.00
2018-12-25T19:59:45.184Z,5.40
2018-12-25T20:02:15.788Z,4.78
2018-12-25T20:05:49.152Z,5.07
2018-12-25T20:08:50.824Z,5.23
2018-12-25T20:12:20.388Z,5.37
2018-12-25T20:15:35.389Z,6.03
2018-12-25T20:19:10.477Z,5.20
2018-12-25T20:22:40.201Z,3.90
2018-12-25T20:26:02.044Z,4.93
2018-12-25T20:29:48.636Z,5.10
2018-12-25T20:33:04.928Z,4.87
2018-12-25T20:36:55.607Z,4.83
2018-12-25T20:40:26.088Z,4.93
2018-12-25T20:43:55.543Z,4.17
2018-12-25T20:47:21.144Z,4.73
2018-12-25T20:50:33.483Z,5.20
2018-12-25T20:54:09.707Z,5.57
2018-12-25T20:57:48.250Z,4.77
2018-12-25T21:01:21.319Z,5.33
2018-12-25T21:04:56.403Z,5.53
2018-12-25T21:08:12.318Z,5.80
2018-12-25T21:11:52.882Z,5.77
2018-12-25T21:15:27.680Z,5.87
2018-12-25T21:18:58.755Z,6.00
2018-12-25T21:22:36.838Z,6.83
2018-12-25T21:26:00.814Z,7.50
2018-12-25T21:28:33.642Z,8.45
2018-12-25T21:31:04.601Z,8.68
2018-12-25T21:33:35.416Z,9.13
2018-12-25T21:36:05.225Z,8.60
2018-12-25T21:38:34.934Z,9.20
2018-12-25T21:41:05.013Z,10.33
2018-12-25T21:43:35.082Z,9.97
2018-12-25T21:46:04.805Z,10.33
2018-12-25T21:48:34.565Z,10.63
2018-12-25T21:51:04.343Z,11.03
2018-12-25T21:53:34.118Z,11.13
2018-12-25T21:56:03.942Z,10.77
2018-12-25T21:58:33.752Z,10.87
2018-12-25T22:01:03.478Z,11.35
2018-12-25T22:03:33.706Z,11.47
2018-12-25T22:06:05.129Z,9.97
2018-12-25T22:08:34.946Z,10.68
2018-12-25T22:11:04.798Z,11.33
2018-12-25T22:13:34.637Z,11.97
2018-12-25T22:16:04.430Z,12.15
2018-12-25T22:18:34.386Z,12.23
2018-12-25T22:21:04.396Z,12.83
2018-12-25T22:23:34.785Z,12.97
2018-12-25T22:26:04.732Z,12.33
2018-12-25T22:28:34.602Z,13.27
2018-12-25T22:31:04.409Z,13.73
2018-12-25T22:33:34.662Z,13.30
2018-12-25T22:36:04.632Z,13.77
2018-12-25T22:38:34.792Z,13.33
2018-12-25T22:41:04.692Z,14.90
2018-12-25T22:43:34.836Z,14.60
2018-12-25T22:46:04.559Z,15.17
2018-12-25T22:48:34.624Z,15.93
2018-12-25T22:51:04.349Z,15.45
2018-12-25T22:53:34.425Z,16.60
2018-12-25T22:56:04.990Z,16.00
2018-12-25T22:58:34.731Z,16.57
2018-12-25T23:01:04.446Z,16.05
2018-12-25T23:03:34.249Z,15.47
2018-12-25T23:06:04.342Z,16.42
2018-12-25T23:08:34.515Z,15.32
2018-12-25T23:11:04.271Z,16.35
2018-12-25T23:13:34.296Z,16.37
2018-12-25T23:16:04.042Z,16.03
2018-12-25T23:18:33.837Z,15.75
2018-12-25T23:21:03.888Z,16.17
2018-12-25T23:23:34.022Z,16.80
2018-12-25T23:26:04.128Z,16.60
2018-12-25T23:28:34.022Z,16.93
2018-12-25T23:31:03.816Z,16.85
2018-12-25T23:33:33.554Z,17.10
2018-12-25T23:36:03.611Z,16.40
2018-12-25T23:38:33.339Z,17.63
2018-12-25T23:41:03.107Z,17.87
2018-12-25T23:43:33.515Z,17.77
2018-12-25T23:46:03.612Z,17.98
2018-12-25T23:48:33.376Z,17.95
2018-12-25T23:51:03.164Z,18.15
2018-12-25T23:53:33.164Z,18.40
2018-12-25T23:56:03.220Z,19.37
2018-12-25T23:58:33.217Z,19.60
